Map

Track Data

SID SEASON NUMBER BASIN SUBBASIN NAME ISO_TIME NATURE LAT LON WMO_WIND WMO_PRES WMO_AGENCY TRACK_TYPE DIST2LAND LANDFALL IFLAG USA_AGENCY USA_ATCF_ID USA_LAT USA_LON USA_RECORD USA_STATUS USA_WIND USA_PRES USA_SSHS USA_R34_NE USA_R34_SE USA_R34_SW USA_R34_NW USA_R50_NE USA_R50_SE USA_R50_SW USA_R50_NW USA_R64_NE USA_R64_SE USA_R64_SW USA_R64_NW USA_POCI USA_ROCI USA_RMW USA_EYE TOKYO_LAT TOKYO_LON TOKYO_GRADE TOKYO_WIND TOKYO_PRES TOKYO_R50_DIR TOKYO_R50_LONG TOKYO_R50_SHORT TOKYO_R30_DIR TOKYO_R30_LONG TOKYO_R30_SHORT TOKYO_LAND CMA_LAT CMA_LON CMA_CAT CMA_WIND CMA_PRES HKO_LAT HKO_LON HKO_CAT HKO_WIND HKO_PRES NEWDELHI_LAT NEWDELHI_LON NEWDELHI_GRADE NEWDELHI_WIND NEWDELHI_PRES NEWDELHI_CI NEWDELHI_DP NEWDELHI_POCI REUNION_LAT REUNION_LON REUNION_TYPE REUNION_WIND REUNION_PRES REUNION_TNUM REUNION_CI REUNION_RMW REUNION_R34_NE REUNION_R34_SE REUNION_R34_SW REUNION_R34_NW REUNION_R50_NE REUNION_R50_SE REUNION_R50_SW REUNION_R50_NW REUNION_R64_NE REUNION_R64_SE REUNION_R64_SW REUNION_R64_NW BOM_LAT BOM_LON BOM_TYPE BOM_WIND BOM_PRES BOM_TNUM BOM_CI BOM_RMW BOM_R34_NE BOM_R34_SE BOM_R34_SW BOM_R34_NW BOM_R50_NE BOM_R50_SE BOM_R50_SW BOM_R50_NW BOM_R64_NE BOM_R64_SE BOM_R64_SW BOM_R64_NW BOM_ROCI BOM_POCI BOM_EYE BOM_POS_METHOD BOM_PRES_METHOD NADI_LAT NADI_LON NADI_CAT NADI_WIND NADI_PRES WELLINGTON_LAT WELLINGTON_LON WELLINGTON_WIND WELLINGTON_PRES DS824_LAT DS824_LON DS824_STAGE DS824_WIND DS824_PRES TD9636_LAT TD9636_LON TD9636_STAGE TD9636_WIND TD9636_PRES TD9635_LAT TD9635_LON TD9635_WIND TD9635_PRES TD9635_ROCI NEUMANN_LAT NEUMANN_LON NEUMANN_CLASS NEUMANN_WIND NEUMANN_PRES MLC_LAT MLC_LON MLC_CLASS MLC_WIND MLC_PRES USA_GUST BOM_GUST BOM_GUST_PER REUNION_GUST REUNION_GUST_PER USA_SEAHGT USA_SEARAD_NE USA_SEARAD_SE USA_SEARAD_SW USA_SEARAD_NW STORM_SPEED STORM_DIR
1866264N11342 1866 23 NA NA NOT_NAMED 1866-09-20 12:00:00 TS 11.3000 -18.5000 main 222 222 _____________O -1 11.3000 -18.5000 TD 30 18 274
1866264N11342 1866 23 NA NA NOT_NAMED 1866-09-20 15:00:00 TS 11.3631 -19.4123 main 304 304 _____________P -1 11.3631 -19.4123 TD 30 18 273
1866264N11342 1866 23 NA NA NOT_NAMED 1866-09-20 18:00:00 TS 11.4000 -20.3000 main 397 397 _____________O -1 11.4000 -20.3000 TD 30 17 271
1866264N11342 1866 23 NA NA NOT_NAMED 1866-09-20 21:00:00 TS 11.3996 -21.1501 main 491 491 _____________P -1 11.3996 -21.1501 TD 30 17 270
1866264N11342 1866 23 NA NA NOT_NAMED 1866-09-21 00:00:00 TS 11.4000 -22.0000 main 577 577 _____________O -1 11.4000 -22.0000 TD 30 17 272
1866264N11342 1866 23 NA NA NOT_NAMED 1866-09-21 03:00:00 TS 11.4499 -22.8999 main 673 671 _____________P -1 11.4499 -22.8999 TD 30 18 273
1866264N11342 1866 23 NA NA NOT_NAMED 1866-09-21 06:00:00 TS 11.5000 -23.8000 main 768 768 _____________O -1 11.5000 -23.8000 TD 30 18 271
1866264N11342 1866 23 NA NA NOT_NAMED 1866-09-21 09:00:00 TS 11.4925 -24.6951 main 858 858 _____________P -1 11.4925 -24.6951 TD 32 17 270
1866264N11342 1866 23 NA NA NOT_NAMED 1866-09-21 12:00:00 TS 11.5000 -25.5000 main 937 937 _____________O -1 11.5000 -25.5000 TS 35 14 274
1866264N11342 1866 23 NA NA NOT_NAMED 1866-09-21 15:00:00 TS 11.5921 -26.1374 main 994 994 _____________P -1 11.5921 -26.1374 TS 37 12 280
1866264N11342 1866 23 NA NA NOT_NAMED 1866-09-21 18:00:00 TS 11.7000 -26.7000 main 1051 1051 _____________O -1 11.7000 -26.7000 TS 40 12 278
1866264N11342 1866 23 NA NA NOT_NAMED 1866-09-21 21:00:00 TS 11.7574 -27.3001 main 1109 1109 _____________P -1 11.7574 -27.3001 TS 45 12 275
1866264N11342 1866 23 NA NA NOT_NAMED 1866-09-22 00:00:00 TS 11.8000 -27.9000 main 1171 1171 _____________O -1 11.8000 -27.9000 TS 50 12 274
1866264N11342 1866 23 NA NA NOT_NAMED 1866-09-22 03:00:00 TS 11.8499 -28.5075 main 1234 1231 _____________P -1 11.8499 -28.5075 TS 55 12 275
1866264N11342 1866 23 NA NA NOT_NAMED 1866-09-22 06:00:00 TS 11.9000 -29.1000 main 1294 1294 _____________O -1 11.9000 -29.1000 TS 60 11 275
1866264N11342 1866 23 NA NA NOT_NAMED 1866-09-22 09:00:00 TS 11.9423 -29.6501 main 1357 1357 _____________P -1 11.9423 -29.6501 TS 60 11 275
1866264N11342 1866 23 NA NA NOT_NAMED 1866-09-22 12:00:00 TS 12.0000 -30.2000 main 1407 1407 _____________O -1 12.0000 -30.2000 TS 60 11 278
1866264N11342 1866 23 NA NA NOT_NAMED 1866-09-22 15:00:00 TS 12.0999 -30.7924 main 1468 1468 _____________P -1 12.0999 -30.7924 TS 62 12 280
1866264N11342 1866 23 NA NA NOT_NAMED 1866-09-22 18:00:00 TS 12.2000 -31.4000 main 1529 1529 _____________O -1 12.2000 -31.4000 HU 65 12 277
1866264N11342 1866 23 NA NA NOT_NAMED 1866-09-22 21:00:00 TS 12.2498 -31.9926 main 1593 1591 _____________P -1 12.2498 -31.9926 HU 67 12 275
1866264N11342 1866 23 NA NA NOT_NAMED 1866-09-23 00:00:00 TS 12.3000 -32.6000 main 1655 1655 _____________O -1 12.3000 -32.6000 HU 70 12 276
1866264N11342 1866 23 NA NA NOT_NAMED 1866-09-23 03:00:00 TS 12.3849 -33.2425 main 1717 1717 _____________P -1 12.3849 -33.2425 HU 70 13 279
1866264N11342 1866 23 NA NA NOT_NAMED 1866-09-23 06:00:00 TS 12.5000 -33.9000 main 1790 1790 _____________O -1 12.5000 -33.9000 HU 70 13 281
1866264N11342 1866 23 NA NA NOT_NAMED 1866-09-23 09:00:00 TS 12.6424 -34.5575 main 1829 1826 _____________P -1 12.6424 -34.5575 HU 72 13 283
1866264N11342 1866 23 NA NA NOT_NAMED 1866-09-23 12:00:00 TS 12.8000 -35.2000 main 1831 1824 _____________O -1 12.8000 -35.2000 HU 75 13 284
1866264N11342 1866 23 NA NA NOT_NAMED 1866-09-23 15:00:00 TS 12.9573 -35.8075 main 1835 1825 _____________P -1 12.9573 -35.8075 HU 75 12 284
1866264N11342 1866 23 NA NA NOT_NAMED 1866-09-23 18:00:00 TS 13.1000 -36.4000 main 1831 1825 _____________O -1 13.1000 -36.4000 HU 75 12 282
1866264N11342 1866 23 NA NA NOT_NAMED 1866-09-23 21:00:00 TS 13.1999 -37.0002 main 1830 1830 _____________P -1 13.1999 -37.0002 HU 75 4 297
1866264N11342 1866 23 NA NA NOT_NAMED 1866-09-24 00:00:00 TS 13.2667 -36.7333 80 hurdat_atl main 1847 1845 O____________O hurdat_atl AL061866 13.2000 -35.0000 HU 80 1 13.3000 -37.6000 HU 75 2 45
1866264N11342 1866 23 NA NA NOT_NAMED 1866-09-24 03:00:00 TS 13.3513 -36.8499 main 1856 1850 P____________P AL061866 13.2527 -35.4999 HU 80 1 13.4499 -38.2000 HU 75 4 292
1866264N11342 1866 23 NA NA NOT_NAMED 1866-09-24 06:00:00 TS 13.4200 -37.1200 80 hurdat_atl main 1850 1835 O____________O hurdat_atl AL061866 13.3000 -36.0000 HU 80 1 13.6000 -38.8000 HU 75 6 280
1866264N11342 1866 23 NA NA NOT_NAMED 1866-09-24 09:00:00 TS 13.4615 -37.4643 main 1832 1787 P____________P AL061866 13.3424 -36.5001 HU 80 1 13.6998 -39.3927 HU 75 9 278
1866264N11342 1866 23 NA NA NOT_NAMED 1866-09-24 12:00:00 TS 13.5333 -38.0000 80 hurdat_atl main 1787 1749 O____________O hurdat_atl AL061866 13.4000 -37.0000 HU 80 1 13.8000 -40.0000 HU 75 11 280
1866264N11342 1866 23 NA NA NOT_NAMED 1866-09-24 15:00:00 TS 13.6398 -38.5301 main 1749 1710 P____________P AL061866 13.4847 -37.4701 HU 80 1 13.9499 -40.6499 HU 75 11 282
1866264N11342 1866 23 NA NA NOT_NAMED 1866-09-24 18:00:00 TS 13.7667 -39.1000 80 hurdat_atl main 1710 1666 O____________O hurdat_atl AL061866 13.6000 -38.0000 HU 80 1 14.1000 -41.3000 HU 75 12 282
1866264N11342 1866 23 NA NA NOT_NAMED 1866-09-24 21:00:00 TS 13.8950 -39.7517 main 1658 1615 P____________P AL061866 13.7426 -38.6775 HU 80 1 14.1997 -41.9002 HU 75 13 282
1866264N11342 1866 23 NA NA NOT_NAMED 1866-09-25 00:00:00 TS 14.0333 -40.4333 80 hurdat_atl main 1615 1575 O____________O hurdat_atl AL061866 13.9000 -39.4000 HU 80 1 14.3000 -42.5000 HU 75 13 283
1866264N11342 1866 23 NA NA NOT_NAMED 1866-09-25 03:00:00 TS 14.1832 -41.0884 main 1575 1537 P____________P AL061866 14.0498 -40.0576 HU 80 1 14.4499 -43.1499 HU 77 13 283
1866264N11342 1866 23 NA NA NOT_NAMED 1866-09-25 06:00:00 TS 14.3333 -41.7333 80 hurdat_atl main 1537 1501 O____________O hurdat_atl AL061866 14.2000 -40.7000 HU 80 1 14.6000 -43.8000 HU 80 13 283
1866264N11342 1866 23 NA NA NOT_NAMED 1866-09-25 09:00:00 TS 14.4665 -42.3743 main 1502 1469 P____________P AL061866 14.3499 -41.3576 HU 80 1 14.6998 -44.4077 HU 80 13 282
1866264N11342 1866 23 NA NA NOT_NAMED 1866-09-25 12:00:00 TS 14.6000 -43.0000 80 hurdat_atl main 1469 1438 O____________O hurdat_atl AL061866 14.5000 -42.0000 HU 80 1 14.8000 -45.0000 HU 80 12 283
1866264N11342 1866 23 NA NA NOT_NAMED 1866-09-25 15:00:00 TS 14.7499 -43.6125 main 1438 1419 P____________P AL061866 14.6498 -42.6151 HU 80 1 14.9499 -45.6074 HU 80 12 285
1866264N11342 1866 23 NA NA NOT_NAMED 1866-09-25 18:00:00 TS 14.9000 -44.2000 80 hurdat_atl main 1419 1397 O____________O hurdat_atl AL061866 14.8000 -43.2000 HU 80 1 15.1000 -46.2000 HU 80 11 284
1866264N11342 1866 23 NA NA NOT_NAMED 1866-09-25 21:00:00 TS 15.0305 -44.7402 main 1397 1372 P____________P AL061866 14.9421 -43.7352 HU 80 1 15.2073 -46.7501 HU 80 11 284
1866264N11342 1866 23 NA NA NOT_NAMED 1866-09-26 00:00:00 TS 15.1667 -45.3000 80 hurdat_atl main 1375 1347 O____________O hurdat_atl AL061866 15.1000 -44.3000 HU 80 1 15.3000 -47.3000 HU 80 12 284
1866264N11342 1866 23 NA NA NOT_NAMED 1866-09-26 03:00:00 TS 15.3333 -45.9566 main 1341 1327 P____________P AL061866 15.3000 -44.9849 HU 80 1 15.4000 -47.9000 HU 80 13 285
1866264N11342 1866 23 NA NA NOT_NAMED 1866-09-26 06:00:00 TS 15.5000 -46.6333 80 hurdat_atl main 1327 1305 O____________O hurdat_atl AL061866 15.5000 -45.7000 HU 80 1 15.5000 -48.5000 HU 80 13 284
1866264N11342 1866 23 NA NA NOT_NAMED 1866-09-26 09:00:00 TS 15.6432 -47.2676 main 1300 1286 P____________P AL061866 15.6649 -46.3801 HU 80 1 15.5997 -49.0426 HU 80 12 283
1866264N11342 1866 23 NA NA NOT_NAMED 1866-09-26 12:00:00 TS 15.7667 -47.8667 80 hurdat_atl main 1292 1274 O____________O hurdat_atl AL061866 15.8000 -47.0000 HU 80 1 15.7000 -49.6000 HU 80 11 282
1866264N11342 1866 23 NA NA NOT_NAMED 1866-09-26 15:00:00 TS 15.8713 -48.4043 main 1280 1265 P____________P AL061866 15.9069 -47.4852 HU 80 1 15.8000 -50.2425 HU 82 11 281
1866264N11342 1866 23 NA NA NOT_NAMED 1866-09-26 18:00:00 TS 15.9667 -48.9667 80 hurdat_atl main 1265 1237 O____________O hurdat_atl AL061866 16.0000 -48.0000 HU 80 1 15.9000 -50.9000 HU 85 12 279
1866264N11342 1866 23 NA NA NOT_NAMED 1866-09-26 21:00:00 TS 16.0567 -49.6493 main 1247 1222 P____________P AL061866 16.0852 -48.7202 HU 80 1 15.9998 -51.5076 HU 85 14 278
1866264N11342 1866 23 NA NA NOT_NAMED 1866-09-27 00:00:00 TS 16.1667 -50.3667 80 hurdat_atl main 1225 1215 O____________O hurdat_atl AL061866 16.2000 -49.5000 HU 80 1 16.1000 -52.1000 HU 85 14 281
1866264N11342 1866 23 NA NA NOT_NAMED 1866-09-27 03:00:00 TS 16.3230 -51.0284 main 1215 1196 P____________P AL061866 16.3845 -50.1926 HU 80 1 16.1998 -52.7001 HU 85 13 285
1866264N11342 1866 23 NA NA NOT_NAMED 1866-09-27 06:00:00 TS 16.5000 -51.7000 80 hurdat_atl main 1196 1146 O____________O hurdat_atl AL061866 16.6000 -50.9000 HU 80 1 16.3000 -53.3000 HU 85 14 285
1866264N11342 1866 23 NA NA NOT_NAMED 1866-09-27 09:00:00 TS 16.6741 -52.4308 main 1146 1092 P____________P AL061866 16.8150 -51.6999 HU 80 1 16.3923 -53.8927 HU 87 14 283
1866264N11342 1866 23 NA NA NOT_NAMED 1866-09-27 12:00:00 TS 16.8333 -53.1667 80 hurdat_atl main 1084 1042 O____________O hurdat_atl AL061866 17.0000 -52.5000 HU 80 1 16.5000 -54.5000 HU 90 14 282
1866264N11342 1866 23 NA NA NOT_NAMED 1866-09-27 15:00:00 TS 16.9548 -53.8677 main 1041 1002 P____________P AL061866 17.1072 -53.2303 HU 80 1 16.6499 -55.1424 HU 92 13 280
1866264N11342 1866 23 NA NA NOT_NAMED 1866-09-27 18:00:00 TS 17.0667 -54.5333 80 hurdat_atl main 1002 966 O____________O hurdat_atl AL061866 17.2000 -53.9000 HU 80 1 16.8000 -55.8000 HU 95 12 281
1866264N11342 1866 23 NA NA NOT_NAMED 1866-09-27 21:00:00 TS 17.1895 -55.1402 main 966 934 P____________P AL061866 17.3344 -54.4852 HU 85 2 16.8998 -56.4502 HU 97 12 283
1866264N11342 1866 23 NA NA NOT_NAMED 1866-09-28 00:00:00 TS 17.3333 -55.7667 90 hurdat_atl main 927 902 O____________O hurdat_atl AL061866 17.5000 -55.1000 HU 90 2 17.0000 -57.1000 MH 100 13 284
1866264N11342 1866 23 NA NA NOT_NAMED 1866-09-28 03:00:00 TS 17.5167 -56.5016 main 902 884 P____________P AL061866 17.7001 -55.8774 HU 90 2 17.1498 -57.7499 MH 100 15 284
1866264N11342 1866 23 NA NA NOT_NAMED 1866-09-28 06:00:00 TS 17.7000 -57.2667 90 hurdat_atl main 879 805 O____________O hurdat_atl AL061866 17.9000 -56.7000 HU 90 2 17.3000 -58.4000 MH 100 15 283
1866264N11342 1866 23 NA NA NOT_NAMED 1866-09-28 09:00:00 TS 17.8356 -58.0011 main 805 729 P____________P AL061866 18.0573 -57.4727 HU 90 2 17.3924 -59.0578 MH 100 14 281
1866264N11342 1866 23 NA NA NOT_NAMED 1866-09-28 12:00:00 TS 17.9667 -58.7000 90 hurdat_atl main 729 665 O____________O hurdat_atl AL061866 18.2000 -58.2000 HU 90 2 17.5000 -59.7000 MH 100 13 283
1866264N11342 1866 23 NA NA NOT_NAMED 1866-09-28 15:00:00 TS 18.1355 -59.3508 main 655 601 P____________P AL061866 18.3572 -58.8725 HU 90 2 17.6922 -60.3074 MH 100 13 285
1866264N11342 1866 23 NA NA NOT_NAMED 1866-09-28 18:00:00 TS 18.3000 -59.9667 90 hurdat_atl main 591 538 O____________O hurdat_atl AL061866 18.5000 -59.5000 HU 90 2 17.9000 -60.9000 MH 100 12 284
1866264N11342 1866 23 NA NA NOT_NAMED 1866-09-28 21:00:00 TS 18.4112 -60.5520 main 527 474 P____________P AL061866 18.5919 -60.0779 HU 95 2 18.0498 -61.5003 MH 100 12 282
1866264N11342 1866 23 NA NA NOT_NAMED 1866-09-29 00:00:00 TS 18.5333 -61.1667 100 hurdat_atl main 464 402 O____________O hurdat_atl AL061866 18.7000 -60.7000 HU 100 3 18.2000 -62.1000 MH 100 13 284
1866264N11342 1866 23 NA NA NOT_NAMED 1866-09-29 03:00:00 TS 18.7284 -61.8898 main 391 321 P____________P AL061866 18.8927 -61.4848 HU 100 3 18.3998 -62.7000 MH 100 14 286
1866264N11342 1866 23 NA NA NOT_NAMED 1866-09-29 06:00:00 TS 18.9333 -62.6333 100 hurdat_atl main 321 254 O____________O hurdat_atl AL061866 19.1000 -62.3000 HU 100 3 18.6000 -63.3000 MH 100 14 285
1866264N11342 1866 23 NA NA NOT_NAMED 1866-09-29 09:00:00 TS 19.0881 -63.3202 main 254 200 P____________P AL061866 19.2572 -63.0302 HU 100 3 18.7498 -63.9003 MH 102 13 283
1866264N11342 1866 23 NA NA NOT_NAMED 1866-09-29 12:00:00 TS 19.2333 -63.9667 100 hurdat_atl main 190 160 O____________O hurdat_atl AL061866 19.4000 -63.7000 HU 100 3 18.9000 -64.5000 MH 105 12 284
1866264N11342 1866 23 NA NA NOT_NAMED 1866-09-29 15:00:00 TS 19.3897 -64.5744 main 153 133 P____________P AL061866 19.5345 -64.3004 HU 100 3 19.1000 -65.1224 MH 105 12 286
1866264N11342 1866 23 NA NA NOT_NAMED 1866-09-29 18:00:00 TS 19.5667 -65.1667 100 hurdat_atl main 140 135 O____________O hurdat_atl AL061866 19.7000 -64.9000 HU 100 3 19.3000 -65.7000 MH 105 12 289
1866264N11342 1866 23 NA NA NOT_NAMED 1866-09-29 21:00:00 TS 19.7782 -65.7858 main 156 156 P____________P AL061866 19.9425 -65.5924 HU 100 3 19.4497 -66.1728 MH 105 12 290
1866264N11342 1866 23 NA NA NOT_NAMED 1866-09-30 00:00:00 TS 20.0000 -66.4000 100 hurdat_atl main 178 178 O____________O hurdat_atl AL061866 20.2000 -66.3000 HU 100 3 19.6000 -66.6000 MH 105 12 291
1866264N11342 1866 23 NA NA NOT_NAMED 1866-09-30 03:00:00 TS 20.2097 -66.9835 main 201 201 P____________P AL061866 20.4146 -66.9502 HU 100 3 19.7999 -67.0500 MH 105 12 290
1866264N11342 1866 23 NA NA NOT_NAMED 1866-09-30 06:00:00 TS 20.4000 -67.5667 100 hurdat_atl main 207 183 O____________O hurdat_atl AL061866 20.6000 -67.6000 HU 100 3 20.0000 -67.5000 MH 105 12 287
1866264N11342 1866 23 NA NA NOT_NAMED 1866-09-30 09:00:00 TS 20.5548 -68.1786 main 185 162 P____________P AL061866 20.7573 -68.2927 HU 100 3 20.1499 -67.9502 MH 107 12 285
1866264N11342 1866 23 NA NA NOT_NAMED 1866-09-30 12:00:00 TS 20.7000 -68.8000 100 hurdat_atl main 165 152 O____________O hurdat_atl AL061866 20.9000 -69.0000 HU 100 3 20.3000 -68.4000 MH 110 12 285
1866264N11342 1866 23 NA NA NOT_NAMED 1866-09-30 15:00:00 TS 20.8614 -69.4118 main 158 148 P____________P AL061866 21.0421 -69.6928 HU 100 3 20.4999 -68.8500 MH 110 12 286
1866264N11342 1866 23 NA NA NOT_NAMED 1866-09-30 18:00:00 TS 21.0333 -70.0333 100 hurdat_atl main 148 143 O____________O hurdat_atl AL061866 21.2000 -70.4000 HU 100 3 20.7000 -69.3000 MH 110 12 287
1866264N11342 1866 23 NA NA NOT_NAMED 1866-09-30 21:00:00 TS 21.2138 -70.6685 main 156 156 P____________P AL061866 21.3921 -71.1276 HU 105 3 20.8574 -69.7502 MH 112 13 287
1866264N11342 1866 23 NA NA NOT_NAMED 1866-10-01 00:00:00 TS 21.4000 -71.3333 110 hurdat_atl main 177 108 O____________O hurdat_atl AL061866 21.6000 -71.9000 HU 110 3 21.0000 -70.2000 MH 115 13 285
1866264N11342 1866 23 NA NA NOT_NAMED 1866-10-01 03:00:00 TS 21.5581 -72.0281 main 112 63 P____________P AL061866 21.7926 -72.7577 HU 110 3 21.0890 -70.5689 MH 115 14 285
1866264N11342 1866 23 NA NA NOT_NAMED 1866-10-01 06:00:00 TS 21.7667 -72.7667 110 hurdat_atl main 70 67 O____________O hurdat_atl AL061866 22.0000 -73.6000 HU 110 3 21.3000 -71.1000 MH 115 15 290
1866264N11342 1866 23 NA NA NOT_NAMED 1866-10-01 09:00:00 TS 22.0691 -73.5693 main 108 108 P____________P AL061866 22.2122 -74.3455 HU 115 4 21.7831 -72.0169 MH 117 16 295
1866264N11342 1866 23 NA NA NOT_NAMED 1866-10-01 12:00:00 TS 22.4667 -74.3667 120 hurdat_atl main 172 172 O____________O hurdat_atl AL061866 22.5000 -75.0000 HU 120 4 22.4000 -73.1000 MH 120 17 302
1866264N11342 1866 23 NA NA NOT_NAMED 1866-10-01 15:00:00 TS 22.9337 -75.0871 main 218 218 P____________P AL061866 22.9046 -75.5803 HU 120 4 22.9919 -74.1007 MH 120 16 308
1866264N11342 1866 23 NA NA NOT_NAMED 1866-10-01 18:00:00 TS 23.4667 -75.7667 120 hurdat_atl main 222 133 O____________O hurdat_atl AL061866 23.4000 -76.1000 HU 120 4 23.6000 -75.1000 MH 120 17 310
1866264N11342 1866 23 NA NA NOT_NAMED 1866-10-01 21:00:00 TS 24.0162 -76.5079 main 133 61 P____________P AL061866 23.9126 -76.6450 HU 120 4 24.2236 -76.2337 MH 120 17 313
1866264N11342 1866 23 NA NA NOT_NAMED 1866-10-02 00:00:00 TS 24.6000 -77.1000 120 938 hurdat_atl main 61 55 O____________O hurdat_atl AL061866 24.5000 -77.1000 HU 120 938 4 24.8000 -77.1000 MH 120 938 14 326
1866264N11342 1866 23 NA NA NOT_NAMED 1866-10-02 03:00:00 TS 25.2161 -77.3858 main 60 60 P____________P AL061866 25.1773 -77.4029 HU 120 4 25.2938 -77.3517 MH 120 13 344
1866264N11342 1866 23 NA NA NOT_NAMED 1866-10-02 06:00:00 TS 25.8333 -77.5000 120 hurdat_atl main 92 92 O____________O hurdat_atl AL061866 25.9000 -77.6000 HU 120 4 25.7000 -77.3000 MH 120 12 349
1866264N11342 1866 23 NA NA NOT_NAMED 1866-10-02 09:00:00 TS 26.4300 -77.6424 main 150 150 P____________P AL061866 26.6524 -77.7949 HU 115 4 25.9850 -77.3374 MH 117 12 351
1866264N11342 1866 23 NA NA NOT_NAMED 1866-10-02 12:00:00 TS 26.9667 -77.7000 110 hurdat_atl main 214 214 O____________O hurdat_atl AL061866 27.3000 -77.9000 HU 110 3 26.3000 -77.3000 MH 115 10 359
1866264N11342 1866 23 NA NA NOT_NAMED 1866-10-02 15:00:00 TS 27.4133 -77.6568 main 237 237 P____________P AL061866 27.7174 -77.8878 HU 110 3 26.8049 -77.1948 MH 112 9 10
1866264N11342 1866 23 NA NA NOT_NAMED 1866-10-02 18:00:00 TS 27.8000 -77.5333 110 hurdat_atl main 270 270 O____________O hurdat_atl AL061866 28.0000 -77.8000 HU 110 3 27.4000 -77.0000 MH 110 8 17
1866264N11342 1866 23 NA NA NOT_NAMED 1866-10-02 21:00:00 TS 28.1591 -77.3964 main 297 297 P____________P AL061866 28.2424 -77.7297 HU 105 3 27.9925 -76.7299 MH 107 8 22
1866264N11342 1866 23 NA NA NOT_NAMED 1866-10-03 00:00:00 TS 28.5333 -77.2000 100 hurdat_atl main 322 322 O____________O hurdat_atl AL061866 28.5000 -77.6000 HU 100 3 28.6000 -76.4000 MH 105 9 26
1866264N11342 1866 23 NA NA NOT_NAMED 1866-10-03 03:00:00 TS 28.9674 -76.9513 main 345 345 P____________P AL061866 28.8474 -77.3945 HU 100 3 29.2074 -76.0647 MH 102 11 28
1866264N11342 1866 23 NA NA NOT_NAMED 1866-10-03 06:00:00 TS 29.4667 -76.6333 100 hurdat_atl main 394 394 O____________O hurdat_atl AL061866 29.3000 -77.1000 HU 100 3 29.8000 -75.7000 MH 100 12 29
1866264N11342 1866 23 NA NA NOT_NAMED 1866-10-03 09:00:00 TS 30.0146 -76.2873 main 439 417 P____________P AL061866 29.8472 -76.7590 HU 95 2 30.3495 -75.3438 MH 95 14 31
1866264N11342 1866 23 NA NA NOT_NAMED 1866-10-03 12:00:00 TS 30.6333 -75.8333 90 hurdat_atl main 422 384 O____________O hurdat_atl AL061866 30.5000 -76.3000 HU 90 2 30.9000 -74.9000 HU 90 16 34
1866264N11342 1866 23 NA NA NOT_NAMED 1866-10-03 15:00:00 TS 31.3153 -75.2624 main 384 348 P____________P AL061866 31.2269 -75.7315 HU 90 2 31.4920 -74.3242 HU 87 18 38
1866264N11342 1866 23 NA NA NOT_NAMED 1866-10-03 18:00:00 TS 32.0333 -74.5333 90 hurdat_atl main 353 333 O____________O hurdat_atl AL061866 32.0000 -75.0000 HU 90 2 32.1000 -73.6000 HU 85 20 43
1866264N11342 1866 23 NA NA NOT_NAMED 1866-10-03 21:00:00 TS 32.7451 -73.6766 main 341 340 P____________P AL061866 32.7723 -74.1099 HU 90 2 32.6907 -72.8100 HU 82 21 48
1866264N11342 1866 23 NA NA NOT_NAMED 1866-10-04 00:00:00 TS 33.4333 -72.6667 90 hurdat_atl main 367 367 O____________O hurdat_atl AL061866 33.5000 -73.1000 HU 90 2 33.3000 -71.8000 HU 80 22 53
1866264N11342 1866 23 NA NA NOT_NAMED 1866-10-04 03:00:00 TS 34.0667 -71.5583 main 402 402 P____________P AL061866 34.1137 -72.0920 HU 90 2 33.9726 -70.4909 HU 77 23 57
1866264N11342 1866 23 NA NA NOT_NAMED 1866-10-04 06:00:00 TS 34.6667 -70.3333 90 hurdat_atl main 486 486 O____________O hurdat_atl AL061866 34.7000 -71.0000 HU 90 2 34.6000 -69.0000 HU 75 980 24 60
1866264N11342 1866 23 NA NA NOT_NAMED 1866-10-04 09:00:00 TS 35.2531 -69.0573 main 580 580 P____________P AL061866 35.3254 -69.8291 HU 85 2 35.1086 -67.5138 HU 75 25 62
1866264N11342 1866 23 NA NA NOT_NAMED 1866-10-04 12:00:00 TS 35.8333 -67.6667 80 hurdat_atl main 685 668 O____________O hurdat_atl AL061866 36.0000 -68.5000 HU 80 1 35.5000 -66.0000 HU 75 26 64
1866264N11342 1866 23 NA NA NOT_NAMED 1866-10-04 15:00:00 TS 36.4135 -66.1333 main 678 673 P____________P AL061866 36.7349 -66.9515 HU 80 1 35.7706 -64.4970 HU 75 28 65
1866264N11342 1866 23 NA NA NOT_NAMED 1866-10-04 18:00:00 TS 37.0000 -64.5333 80 hurdat_atl main 703 690 O____________O hurdat_atl AL061866 37.5000 -65.3000 HU 80 1 36.0000 -63.0000 HU 75 28 65
1866264N11342 1866 23 NA NA NOT_NAMED 1866-10-04 21:00:00 TS 37.5819 -62.9875 main 684 668 P____________P AL061866 38.2313 -63.7318 HU 80 1 36.2831 -61.4988 HU 75 28 64
1866264N11342 1866 23 NA NA NOT_NAMED 1866-10-05 00:00:00 TS 38.2000 -61.4000 80 hurdat_atl main 674 672 O____________O hurdat_atl AL061866 39.0000 -62.1000 HU 80 1 36.6000 -60.0000 HU 75 980 29 64
1866264N11342 1866 23 NA NA NOT_NAMED 1866-10-05 03:00:00 TS 38.8773 -59.6760 main 690 676 P____________P AL061866 39.8631 -60.3022 HU 80 1 36.9056 -58.4236 HU 75 30 63
1866264N11342 1866 23 NA NA NOT_NAMED 1866-10-05 06:00:00 TS 39.5667 -57.9333 80 hurdat_atl main 675 666 O____________O hurdat_atl AL061866 40.7000 -58.4000 HU 80 1 37.3000 -57.0000 HU 75 29 63
1866264N11342 1866 23 NA NA NOT_NAMED 1866-10-05 09:00:00 TS 40.2131 -56.3109 main 679 673 P____________P AL061866 41.3975 -56.5048 HU 75 1 37.8444 -55.9231 HU 72 27 67
1866264N11342 1866 23 NA NA NOT_NAMED 1866-10-05 12:00:00 TS 40.6000 -54.7000 70 hurdat_atl main 672 633 O____________O hurdat_atl AL061866 42.0000 -54.5000 HU 70 1 38.5000 -55.0000 HU 70 25 75
1866264N11342 1866 23 NA NA NOT_NAMED 1866-10-05 15:00:00 TS 40.8761 -53.1565 main 633 624 P____________P AL061866 42.5306 -52.3128 HU 70 1 39.2216 -54.0003 HU 70 21 81
1866264N11342 1866 23 NA NA NOT_NAMED 1866-10-05 18:00:00 TS 40.9333 -52.0000 70 hurdat_atl main 640 640 O____________O hurdat_atl AL061866 43.0000 -50.0000 HU 70 1 39.9000 -53.0000 HU 70 10 119
1866264N11342 1866 23 NA NA NOT_NAMED 1866-10-05 21:00:00 TS 40.3866 -51.9971 main 695 666 _____________P AL061866 HU -1 40.3866 -51.9971 HU 67 8 100
1866264N11342 1866 23 NA NA NOT_NAMED 1866-10-06 00:00:00 TS 40.8000 -51.0000 main 668 646 _____________O -1 40.8000 -51.0000 HU 65 17 60
1866264N11342 1866 23 NA NA NOT_NAMED 1866-10-06 03:00:00 TS 41.2566 -49.9990 main 641 634 _____________P -1 41.2566 -49.9990 HU 62 17 59
1866264N11342 1866 23 NA NA NOT_NAMED 1866-10-06 06:00:00 TS 41.7000 -49.0000 main 638 637 _____________O -1 41.7000 -49.0000 TS 60 17 61
1866264N11342 1866 23 NA NA NOT_NAMED 1866-10-06 09:00:00 TS 42.0841 -47.9973 main 647 647 _____________P -1 42.0841 -47.9973 TS 57 17 62
1866264N11342 1866 23 NA NA NOT_NAMED 1866-10-06 12:00:00 TS 42.5000 -47.0000 main 668 666 _____________O -1 42.5000 -47.0000 TS 55 17 57
1866264N11342 1866 23 NA NA NOT_NAMED 1866-10-06 15:00:00 TS 43.0267 -45.9993 main 692 690 _____________P -1 43.0267 -45.9993 TS 52 18 53
1866264N11342 1866 23 NA NA NOT_NAMED 1866-10-06 18:00:00 TS 43.6000 -45.0000 main 717 717 _____________O -1 43.6000 -45.0000 TS 50 18 52
1866264N11342 1866 23 NA NA NOT_NAMED 1866-10-06 21:00:00 TS 44.1716 -43.9993 main 755 755 _____________P -1 44.1716 -43.9993 TS 47 18 53
1866264N11342 1866 23 NA NA NOT_NAMED 1866-10-07 00:00:00 TS 44.7000 -43.0000 main 799 799 _____________O -1 44.7000 -43.0000 TS 45 17 56
1866264N11342 1866 23 NA NA NOT_NAMED 1866-10-07 03:00:00 TS 45.1141 -41.9971 main 852 852 _____________P -1 45.1141 -41.9971 TS 42 16 60
1866264N11342 1866 23 NA NA NOT_NAMED 1866-10-07 06:00:00 TS 45.5000 -41.0000 main 910 910 _____________O -1 45.5000 -41.0000 TS 40 16 60
1866264N11342 1866 23 NA NA NOT_NAMED 1866-10-07 09:00:00 TS 45.9342 -40.0043 main 972 972 _____________P -1 45.9342 -40.0043 TS 37 17 57
1866264N11342 1866 23 NA NA NOT_NAMED 1866-10-07 12:00:00 TS 46.4000 -39.0000 main 1033 _____________O -1 46.4000 -39.0000 TS 35 17 56

About IBTrACS Database

This database is a web-friendly format of International Best Track Archive for Climate Stewardship (IBTrACS), a global best track data archive curated by NOAA dating back to 1842.

Updated: 2021-10-21